createdAt,value
2016-11-24T00:01:47.944Z,0
2016-11-24T00:06:52.044Z,0
2016-11-24T00:11:56.473Z,0
2016-11-24T00:17:00.896Z,0
2016-11-24T00:22:05.322Z,0
2016-11-24T00:27:09.414Z,0
2016-11-24T00:32:13.838Z,0
2016-11-24T00:37:17.934Z,0
2016-11-24T00:42:22.030Z,0
2016-11-24T00:47:26.121Z,0
2016-11-24T00:52:30.216Z,0
2016-11-24T00:57:34.307Z,0
2016-11-24T01:02:38.742Z,0
2016-11-24T01:07:42.834Z,0
2016-11-24T01:12:46.924Z,0
2016-11-24T01:17:51.357Z,0
2016-11-24T01:22:55.784Z,0
2016-11-24T01:27:59.884Z,0
2016-11-24T01:33:04.309Z,0
2016-11-24T01:38:08.399Z,0
2016-11-24T01:43:12.832Z,0
2016-11-24T01:48:16.921Z,0
2016-11-24T01:53:21.343Z,0
2016-11-24T01:58:25.442Z,0
2016-11-24T02:03:29.531Z,0
2016-11-24T02:08:33.624Z,0
2016-11-24T02:13:38.726Z,0
2016-11-24T02:18:43.159Z,0
2016-11-24T02:23:47.248Z,0
2016-11-24T02:28:51.344Z,0
2016-11-24T02:33:56.101Z,0
2016-11-24T02:39:00.875Z,0
2016-11-24T02:44:04.966Z,0
2016-11-24T02:49:09.398Z,0
2016-11-24T02:54:13.485Z,0
2016-11-24T02:59:17.913Z,0
2016-11-24T03:04:22.335Z,0
2016-11-24T03:09:26.758Z,0
2016-11-24T03:14:31.193Z,0
2016-11-24T03:19:35.951Z,0
2016-11-24T03:24:40.042Z,0
2016-11-24T03:29:44.137Z,0
2016-11-24T03:34:48.565Z,0
2016-11-24T03:39:53.322Z,0
2016-11-24T03:44:57.410Z,0
2016-11-24T03:50:01.512Z,0
2016-11-24T03:55:05.603Z,0
2016-11-24T04:00:10.032Z,0
2016-11-24T04:05:14.458Z,0
2016-11-24T04:10:19.549Z,0
2016-11-24T04:15:24.307Z,0
2016-11-24T04:20:29.071Z,0
2016-11-24T04:25:33.837Z,0
2016-11-24T04:30:37.921Z,0
2016-11-24T04:35:42.685Z,0
2016-11-24T04:40:46.773Z,0
2016-11-24T04:45:51.529Z,0
2016-11-24T04:50:55.954Z,0
2016-11-24T04:56:00.382Z,0
2016-11-24T05:01:04.818Z,0
2016-11-24T05:06:08.913Z,0
2016-11-24T05:11:13.342Z,0
2016-11-24T05:16:17.431Z,0
2016-11-24T05:21:21.852Z,0
2016-11-24T05:26:25.937Z,0
2016-11-24T05:31:30.024Z,0
2016-11-24T05:36:34.471Z,0
2016-11-24T05:41:38.896Z,0
2016-11-24T05:46:42.990Z,0
2016-11-24T05:51:47.414Z,0
2016-11-24T05:56:51.502Z,0
2016-11-24T06:01:55.587Z,0
2016-11-24T06:06:59.679Z,0
2016-11-24T06:12:03.769Z,0
2016-11-24T06:17:07.859Z,0
2016-11-24T06:22:12.622Z,1
2016-11-24T06:27:17.392Z,1
2016-11-24T06:32:21.504Z,1
2016-11-24T06:37:26.026Z,2
2016-11-24T06:42:30.131Z,4
2016-11-24T06:47:34.219Z,7
2016-11-24T06:52:38.665Z,13
2016-11-24T06:57:42.759Z,21
2016-11-24T07:02:47.276Z,31
2016-11-24T07:07:51.746Z,51
2016-11-24T07:12:55.836Z,85
2016-11-24T07:17:59.993Z,133
2016-11-24T07:23:04.090Z,197
2016-11-24T07:28:08.190Z,257
2016-11-24T07:33:12.616Z,327
2016-11-24T07:38:17.047Z,391
2016-11-24T07:43:21.489Z,467
2016-11-24T07:48:25.579Z,598
2016-11-24T07:53:30.002Z,721
2016-11-24T07:58:34.770Z,823
2016-11-24T08:03:38.862Z,773
2016-11-24T08:08:43.304Z,902
2016-11-24T08:13:47.390Z,787
2016-11-24T08:18:51.480Z,776
2016-11-24T08:23:55.904Z,860
2016-11-24T08:28:59.992Z,875
2016-11-24T08:34:04.083Z,859
2016-11-24T08:39:08.513Z,834
2016-11-24T08:44:12.611Z,817
2016-11-24T08:49:17.371Z,803
2016-11-24T08:54:21.798Z,815
2016-11-24T08:59:25.899Z,859
2016-11-24T09:04:30.323Z,939
2016-11-24T09:09:34.423Z,999
2016-11-24T09:14:38.848Z,966
2016-11-24T09:19:42.942Z,877
2016-11-24T09:24:47.368Z,863
2016-11-24T09:29:51.454Z,867
2016-11-24T09:34:55.898Z,906
2016-11-24T09:39:59.991Z,953
2016-11-24T09:45:04.410Z,974
2016-11-24T09:50:08.842Z,944
2016-11-24T09:55:12.936Z,979
2016-11-24T10:00:17.370Z,1024
2016-11-24T10:05:21.474Z,965
2016-11-24T10:10:25.576Z,1089
2016-11-24T10:15:30.345Z,1058
2016-11-24T10:20:34.429Z,971
2016-11-24T10:25:38.867Z,865
2016-11-24T10:30:43.300Z,849
2016-11-24T10:35:47.390Z,763
2016-11-24T10:40:51.815Z,787
2016-11-24T10:45:55.912Z,726
2016-11-24T10:51:00.009Z,694
2016-11-24T10:56:04.433Z,677
2016-11-24T11:01:08.532Z,667
2016-11-24T11:06:12.624Z,592
2016-11-24T11:11:16.719Z,599
2016-11-24T11:16:21.155Z,609
2016-11-24T11:21:25.253Z,610
2016-11-24T11:26:29.683Z,728
2016-11-24T11:31:33.775Z,807
2016-11-24T11:36:38.215Z,933
2016-11-24T11:41:42.312Z,920
2016-11-24T11:46:46.440Z,1008
2016-11-24T11:51:50.869Z,1141
2016-11-24T11:56:54.971Z,1191
2016-11-24T12:01:59.069Z,1222
2016-11-24T12:07:03.162Z,1246
2016-11-24T12:12:07.258Z,941
2016-11-24T12:17:11.696Z,1079
2016-11-24T12:22:15.793Z,1032
2016-11-24T12:27:19.887Z,1128
2016-11-24T12:32:23.995Z,1213
2016-11-24T12:37:28.424Z,1241
2016-11-24T12:42:33.201Z,1257
2016-11-24T12:47:37.307Z,1196
2016-11-24T12:52:41.403Z,1159
2016-11-24T12:57:45.836Z,1252
2016-11-24T13:02:50.266Z,1194
2016-11-24T13:07:54.360Z,1051
2016-11-24T13:12:59.125Z,1084
2016-11-24T13:18:03.228Z,1065
2016-11-24T13:23:07.675Z,1081
2016-11-24T13:28:11.772Z,1022
2016-11-24T13:33:16.204Z,843
2016-11-24T13:38:20.624Z,494
2016-11-24T13:43:24.727Z,438
2016-11-24T13:48:28.827Z,403
2016-11-24T13:53:33.255Z,406
2016-11-24T13:58:37.348Z,413
2016-11-24T14:03:42.112Z,367
2016-11-24T14:08:46.539Z,316
2016-11-24T14:13:51.310Z,284
2016-11-24T14:18:55.755Z,248
2016-11-24T14:24:00.191Z,225
2016-11-24T14:29:04.621Z,203
2016-11-24T14:34:09.046Z,177
2016-11-24T14:39:13.144Z,152
2016-11-24T14:44:17.576Z,124
2016-11-24T14:49:21.667Z,98
2016-11-24T14:54:26.104Z,75
2016-11-24T14:59:30.199Z,56
2016-11-24T15:04:34.629Z,40
2016-11-24T15:09:39.903Z,27
2016-11-24T15:14:44.078Z,18
2016-11-24T15:19:48.201Z,10
2016-11-24T15:24:52.673Z,6
2016-11-24T15:29:57.157Z,3
2016-11-24T15:35:01.628Z,1
2016-11-24T15:40:06.150Z,1
2016-11-24T15:45:10.270Z,0
2016-11-24T15:50:14.403Z,0
2016-11-24T15:55:18.881Z,0
2016-11-24T16:00:23.022Z,0
2016-11-24T16:05:27.452Z,0
2016-11-24T16:10:31.877Z,0
2016-11-24T16:15:36.398Z,0
2016-11-24T16:20:40.893Z,0
2016-11-24T16:25:45.002Z,0
2016-11-24T16:30:49.101Z,0
2016-11-24T16:35:53.528Z,0
2016-11-24T16:40:57.621Z,0
2016-11-24T16:46:01.719Z,0
2016-11-24T16:51:06.160Z,0
2016-11-24T16:56:10.280Z,0
2016-11-24T17:01:14.711Z,0
2016-11-24T17:06:19.473Z,0
2016-11-24T17:11:23.695Z,0
2016-11-24T17:16:28.128Z,0
2016-11-24T17:21:32.557Z,0
2016-11-24T17:26:36.698Z,0
2016-11-24T17:31:40.863Z,0
2016-11-24T17:36:45.359Z,0
2016-11-24T17:41:49.823Z,0
2016-11-24T17:46:54.253Z,0
2016-11-24T17:51:59.015Z,0
2016-11-24T17:57:03.443Z,0
2016-11-24T18:02:08.275Z,0
2016-11-24T18:07:12.400Z,0
2016-11-24T18:12:16.493Z,0
2016-11-24T18:17:20.598Z,0
2016-11-24T18:22:24.779Z,0
2016-11-24T18:27:28.878Z,0
2016-11-24T18:32:33.319Z,0
2016-11-24T18:37:37.745Z,0
2016-11-24T18:42:42.172Z,0
2016-11-24T18:47:46.268Z,0
2016-11-24T18:52:50.365Z,0
2016-11-24T18:57:54.473Z,0
2016-11-24T19:02:58.558Z,0
2016-11-24T19:08:02.979Z,0
2016-11-24T19:13:07.413Z,0
2016-11-24T19:18:11.504Z,0
2016-11-24T19:23:16.268Z,0
2016-11-24T19:28:20.506Z,0
2016-11-24T19:33:24.614Z,0
2016-11-24T19:38:28.916Z,0
2016-11-24T19:43:33.009Z,0
2016-11-24T19:48:37.430Z,0
2016-11-24T19:53:41.517Z,0
2016-11-24T19:58:45.957Z,0
2016-11-24T20:03:50.062Z,1
2016-11-24T20:08:54.154Z,0
2016-11-24T20:13:58.587Z,0
2016-11-24T20:19:03.360Z,1
2016-11-24T20:24:07.482Z,0
2016-11-24T20:29:11.633Z,1
2016-11-24T20:34:16.148Z,0
2016-11-24T20:39:20.620Z,0
2016-11-24T20:44:25.075Z,1
2016-11-24T20:49:29.182Z,1
2016-11-24T20:54:33.610Z,1
2016-11-24T20:59:37.697Z,1
2016-11-24T21:04:42.460Z,1
2016-11-24T21:09:46.893Z,1
2016-11-24T21:14:50.986Z,1
2016-11-24T21:19:55.097Z,1
2016-11-24T21:24:59.237Z,1
2016-11-24T21:30:03.682Z,1
2016-11-24T21:35:08.111Z,0
2016-11-24T21:40:12.869Z,0
2016-11-24T21:45:16.996Z,0
2016-11-24T21:50:21.407Z,0
2016-11-24T21:55:25.498Z,0
2016-11-24T22:00:29.920Z,0
2016-11-24T22:05:34.018Z,0
2016-11-24T22:10:38.103Z,0
2016-11-24T22:15:42.199Z,0
2016-11-24T22:20:46.292Z,0
2016-11-24T22:25:51.050Z,0
2016-11-24T22:30:55.139Z,0
2016-11-24T22:35:59.236Z,0
2016-11-24T22:41:03.329Z,0
2016-11-24T22:46:07.425Z,0
2016-11-24T22:51:11.524Z,0
2016-11-24T22:56:15.969Z,0
2016-11-24T23:01:20.087Z,0
2016-11-24T23:06:24.415Z,0
2016-11-24T23:11:28.865Z,0
2016-11-24T23:16:32.970Z,0
2016-11-24T23:21:37.068Z,0
2016-11-24T23:26:41.494Z,0
2016-11-24T23:31:45.930Z,0
2016-11-24T23:36:50.029Z,0
2016-11-24T23:41:54.122Z,0
2016-11-24T23:46:58.222Z,0
2016-11-24T23:52:02.319Z,0
2016-11-24T23:57:06.750Z,0
